createdAt,value
2023-04-22T00:00:49.585Z,9.27
2023-04-22T00:05:54.831Z,7.78
2023-04-22T00:10:58.136Z,8.80
2023-04-22T00:16:01.409Z,7.95
2023-04-22T00:21:07.554Z,8.48
2023-04-22T00:26:10.853Z,8.13
2023-04-22T00:31:15.557Z,8.33
2023-04-22T00:36:20.250Z,7.88
2023-04-22T00:41:24.476Z,8.05
2023-04-22T00:46:28.338Z,7.50
2023-04-22T00:51:34.338Z,7.68
2023-04-22T00:56:40.155Z,7.63
2023-04-22T01:01:44.872Z,7.75
2023-04-22T01:06:51.458Z,7.60
2023-04-22T01:11:55.243Z,6.90
2023-04-22T01:16:59.297Z,7.90
2023-04-22T01:22:05.272Z,6.85
2023-04-22T01:27:10.376Z,7.30
2023-04-22T01:32:14.036Z,6.72
2023-04-22T01:37:17.290Z,7.15
2023-04-22T01:42:24.108Z,7.90
2023-04-22T01:47:28.747Z,7.22
2023-04-22T01:52:32.836Z,6.85
2023-04-22T01:57:37.771Z,7.00
2023-04-22T02:07:45.557Z,7.07
2023-04-22T02:12:53.164Z,6.80
2023-04-22T02:17:56.736Z,8.07
2023-04-22T02:23:00.682Z,7.55
2023-04-22T02:28:05.753Z,7.05
2023-04-22T02:33:09.363Z,7.68
2023-04-22T02:38:13.031Z,7.95
2023-04-22T02:43:18.210Z,7.20
2023-04-22T02:48:21.881Z,8.82
2023-04-22T02:53:25.711Z,7.60
2023-04-22T02:58:31.073Z,7.43
2023-04-22T03:03:34.961Z,8.05
2023-04-22T03:08:38.766Z,8.60
2023-04-22T03:13:43.813Z,8.15
2023-04-22T03:18:48.305Z,8.55
2023-04-22T03:23:52.341Z,9.48
2023-04-22T03:28:57.534Z,8.38
2023-04-22T03:34:01.608Z,8.20
2023-04-22T03:39:08.376Z,8.60
2023-04-22T03:44:13.195Z,8.68
2023-04-22T03:49:17.000Z,9.00
2023-04-22T03:54:22.109Z,8.82
2023-04-22T03:59:29.811Z,9.13
2023-04-22T04:04:35.019Z,9.30
2023-04-22T04:09:38.636Z,9.63
2023-04-22T04:14:44.092Z,8.05
2023-04-22T04:19:51.380Z,8.55
2023-04-22T04:24:56.302Z,8.63
2023-04-22T04:30:05.577Z,9.35
2023-04-22T04:35:18.450Z,8.55
2023-04-22T04:40:29.611Z,8.65
2023-04-22T04:45:48.492Z,10.10
2023-04-22T04:50:54.308Z,9.38
2023-04-22T04:55:59.296Z,8.75
2023-04-22T05:01:06.679Z,8.05
2023-04-22T05:06:10.940Z,8.38
2023-04-22T05:11:16.906Z,8.27
2023-04-22T05:16:24.950Z,9.25
2023-04-22T05:21:28.554Z,8.50
2023-04-22T05:26:32.840Z,7.70
2023-04-22T05:36:44.175Z,8.25
2023-04-22T05:41:47.930Z,8.65
2023-04-22T05:46:54.451Z,8.85
2023-04-22T05:51:58.634Z,9.38
2023-04-22T05:57:08.511Z,8.23
2023-04-22T06:02:13.876Z,7.97
2023-04-22T06:07:17.999Z,7.47
2023-04-22T06:12:21.757Z,7.95
2023-04-22T06:17:26.933Z,7.68
2023-04-22T06:27:34.150Z,7.10
2023-04-22T06:32:39.401Z,7.35
2023-04-22T06:37:43.231Z,8.43
2023-04-22T06:42:47.109Z,7.53
2023-04-22T06:48:14.881Z,7.28
2023-04-22T06:53:38.341Z,6.80
2023-04-22T06:58:41.841Z,6.78
2023-04-22T07:03:47.056Z,6.25
2023-04-22T07:08:51.941Z,7.13
2023-04-22T07:13:55.462Z,6.82
2023-04-22T07:19:00.672Z,6.20
2023-04-22T07:24:04.321Z,5.18
2023-04-22T07:29:07.847Z,5.95
2023-04-22T07:34:12.864Z,6.32
2023-04-22T07:39:16.432Z,6.28
2023-04-22T07:44:21.919Z,4.93
2023-04-22T07:49:27.042Z,4.55
2023-04-22T07:54:30.691Z,5.05
2023-04-22T07:59:34.317Z,5.22
2023-04-22T08:04:39.411Z,6.22
2023-04-22T08:09:43.036Z,5.05
2023-04-22T08:14:47.005Z,5.03
2023-04-22T08:19:51.947Z,4.50
2023-04-22T08:24:55.121Z,5.13
2023-04-22T08:30:00.123Z,4.47
2023-04-22T08:35:05.757Z,4.47
2023-04-22T08:40:10.636Z,4.50
2023-04-22T08:45:15.058Z,3.60
2023-04-22T08:50:22.570Z,3.90
2023-04-22T08:55:27.213Z,3.55
2023-04-22T09:00:31.241Z,4.53
2023-04-22T09:05:38.433Z,4.82
2023-04-22T09:10:41.922Z,4.00
2023-04-22T09:15:45.568Z,3.47
2023-04-22T09:20:51.294Z,3.75
2023-04-22T09:25:55.014Z,3.80
2023-04-22T09:31:04.261Z,3.42
2023-04-22T09:36:12.074Z,3.97
2023-04-22T09:41:15.584Z,3.95
2023-04-22T09:46:19.373Z,4.00
2023-04-22T09:51:24.528Z,3.97
2023-04-22T09:56:42.637Z,4.30
2023-04-22T10:01:46.765Z,4.85
2023-04-22T10:06:52.372Z,4.73
2023-04-22T10:11:59.540Z,4.43
2023-04-22T10:17:05.121Z,4.57
2023-04-22T10:22:13.282Z,4.00
2023-04-22T10:27:23.261Z,11.32
2023-04-22T10:32:28.310Z,4.60
2023-04-22T10:37:33.720Z,4.90
2023-04-22T10:42:37.440Z,4.78
2023-04-22T10:47:42.278Z,3.40
2023-04-22T10:57:53.884Z,3.28
2023-04-22T11:03:19.211Z,3.38
2023-04-22T11:08:29.704Z,3.53
2023-04-22T11:13:34.307Z,3.33
2023-04-22T11:18:39.066Z,3.20
2023-04-22T11:28:54.396Z,3.10
2023-04-22T11:34:00.887Z,3.20
2023-04-22T11:39:11.654Z,2.97
2023-04-22T11:44:16.446Z,3.55
2023-04-22T11:49:20.263Z,2.95
2023-04-22T11:54:34.123Z,4.90
2023-04-22T11:59:38.055Z,2.63
2023-04-22T12:04:42.495Z,2.80
2023-04-22T12:09:48.213Z,2.80
2023-04-22T12:14:51.773Z,2.70
2023-04-22T12:19:58.236Z,2.78
2023-04-22T12:25:03.566Z,3.10
2023-04-22T12:30:08.749Z,2.47
2023-04-22T12:35:12.340Z,2.70
2023-04-22T12:40:17.477Z,3.20
2023-04-22T12:45:23.216Z,2.55
2023-04-22T12:50:26.951Z,2.25
2023-04-22T12:55:31.885Z,2.90
2023-04-22T13:00:35.909Z,2.70
2023-04-22T13:05:40.274Z,2.23
2023-04-22T13:10:45.206Z,2.17
2023-04-22T13:15:53.841Z,2.55
2023-04-22T13:20:58.000Z,2.28
2023-04-22T13:26:03.354Z,2.60
2023-04-22T13:31:06.962Z,2.42
2023-04-22T13:36:10.698Z,1.95
2023-04-22T13:41:15.630Z,2.20
2023-04-22T13:46:19.275Z,2.78
2023-04-22T13:51:22.997Z,2.17
2023-04-22T13:56:27.648Z,2.55
2023-04-22T14:01:31.297Z,2.22
2023-04-22T14:06:35.174Z,2.45
2023-04-22T14:11:40.112Z,3.05
2023-04-22T14:16:43.743Z,2.08
2023-04-22T14:21:47.397Z,2.40
2023-04-22T14:26:52.847Z,2.60
2023-04-22T14:31:56.557Z,2.22
2023-04-22T14:37:00.142Z,3.13
2023-04-22T14:42:05.664Z,3.05
2023-04-22T14:47:09.206Z,1.90
2023-04-22T14:52:13.078Z,2.60
2023-04-22T14:57:18.165Z,2.38
2023-04-22T15:02:21.538Z,3.10
2023-04-22T15:07:25.171Z,2.20
2023-04-22T15:12:30.291Z,2.45
2023-04-22T15:17:35.254Z,2.50
2023-04-22T15:22:41.362Z,2.50
2023-04-22T15:27:46.759Z,3.30
2023-04-22T15:32:50.681Z,2.90
2023-04-22T15:37:54.558Z,2.73
2023-04-22T15:42:59.654Z,4.40
2023-04-22T15:48:03.558Z,4.80
2023-04-22T15:53:07.129Z,3.70
2023-04-22T15:58:12.167Z,4.15
2023-04-22T16:03:16.030Z,3.10
2023-04-22T16:08:19.738Z,3.43
2023-04-22T16:13:24.788Z,4.25
2023-04-22T16:18:28.528Z,3.33
2023-04-22T16:23:32.294Z,3.90
2023-04-22T16:28:37.495Z,4.28
2023-04-22T16:33:41.312Z,5.68
2023-04-22T16:38:44.978Z,6.40
2023-04-22T16:43:49.994Z,5.10
2023-04-22T16:48:53.321Z,7.20
2023-04-22T16:53:56.893Z,6.53
2023-04-22T16:59:01.841Z,8.70
2023-04-22T17:04:05.545Z,5.43
2023-04-22T17:09:10.346Z,10.73
2023-04-22T17:14:15.612Z,8.88
2023-04-22T17:19:19.117Z,5.93
2023-04-22T17:24:22.793Z,5.45
2023-04-22T17:29:27.745Z,6.50
2023-04-22T17:39:34.671Z,3.80
2023-04-22T17:44:39.865Z,6.05
2023-04-22T17:49:43.899Z,4.00
2023-04-22T17:54:47.612Z,4.97
2023-04-22T17:59:52.830Z,4.20
2023-04-22T18:04:56.537Z,5.75
2023-04-22T18:10:00.043Z,7.63
2023-04-22T18:15:05.481Z,6.28
2023-04-22T18:20:18.259Z,6.53
2023-04-22T18:25:24.524Z,5.13
2023-04-22T18:35:35.680Z,4.95
2023-04-22T18:40:39.316Z,5.72
2023-04-22T18:45:44.257Z,5.30
2023-04-22T18:50:47.908Z,5.80
2023-04-22T18:55:51.580Z,6.18
2023-04-22T19:00:56.597Z,5.88
2023-04-22T19:06:00.277Z,5.05
2023-04-22T19:11:03.926Z,5.70
2023-04-22T19:16:09.369Z,5.82
2023-04-22T19:21:12.810Z,5.80
2023-04-22T19:26:16.573Z,5.80
2023-04-22T19:31:21.986Z,5.20
2023-04-22T19:36:25.990Z,5.45
2023-04-22T19:41:29.745Z,6.55
2023-04-22T19:46:35.368Z,6.55
2023-04-22T19:51:41.555Z,6.00
2023-04-22T19:56:45.645Z,5.85
2023-04-22T20:01:51.175Z,6.97
2023-04-22T20:06:55.700Z,5.55
2023-04-22T20:12:00.332Z,5.30
2023-04-22T20:17:05.741Z,5.40
2023-04-22T20:22:11.536Z,4.60
2023-04-22T20:27:17.135Z,4.25
2023-04-22T20:32:21.988Z,4.63
2023-04-22T20:37:26.893Z,4.53
2023-04-22T20:42:30.603Z,4.63
2023-04-22T20:47:36.343Z,4.45
2023-04-22T20:52:40.630Z,4.43
2023-04-22T20:57:44.248Z,4.70
2023-04-22T21:02:49.961Z,4.35
2023-04-22T21:07:54.103Z,4.72
2023-04-22T21:12:57.745Z,5.35
2023-04-22T21:18:03.537Z,5.30
2023-04-22T21:23:09.029Z,5.10
2023-04-22T21:28:13.361Z,5.03
2023-04-22T21:33:18.309Z,4.97
2023-04-22T21:38:22.288Z,4.65
2023-04-22T21:43:25.825Z,5.95
2023-04-22T21:48:30.730Z,5.60
2023-04-22T21:53:34.601Z,5.95
2023-04-22T21:58:38.167Z,5.50
2023-04-22T22:03:43.363Z,5.85
2023-04-22T22:13:52.074Z,4.78
2023-04-22T22:18:58.459Z,5.35
2023-04-22T22:24:02.024Z,5.63
2023-04-22T22:29:05.947Z,5.63
2023-04-22T22:34:11.072Z,6.53
2023-04-22T22:39:16.243Z,5.38
2023-04-22T22:44:19.483Z,5.05
2023-04-22T22:49:24.616Z,5.65
2023-04-22T22:54:28.299Z,4.70
2023-04-22T22:59:31.936Z,4.85
2023-04-22T23:04:37.814Z,4.47
2023-04-22T23:09:41.485Z,6.22
2023-04-22T23:14:45.173Z,6.07
2023-04-22T23:19:53.313Z,5.60
2023-04-22T23:24:57.540Z,5.20
2023-04-22T23:30:01.774Z,5.22
2023-04-22T23:35:08.244Z,5.28
2023-04-22T23:40:12.683Z,4.88
2023-04-22T23:45:16.437Z,5.33
2023-04-22T23:50:21.690Z,4.88
